sensor_id;sensor_type;location;lat;lon;timestamp;P1;durP1;ratioP1;P2;durP2;ratioP2
49123;SDS011;48506;48.202;16.274;2024-01-15T00:00:43;11.35;;;5.60;;
49123;SDS011;48506;48.202;16.274;2024-01-15T00:03:09;12.57;;;5.30;;
49123;SDS011;48506;48.202;16.274;2024-01-15T00:05:36;15.45;;;5.05;;
49123;SDS011;48506;48.202;16.274;2024-01-15T00:08:01;11.68;;;6.30;;
49123;SDS011;48506;48.202;16.274;2024-01-15T00:10:30;11.98;;;5.82;;
49123;SDS011;48506;48.202;16.274;2024-01-15T00:12:56;15.38;;;6.63;;
49123;SDS011;48506;48.202;16.274;2024-01-15T00:15:22;13.68;;;5.28;;
49123;SDS011;48506;48.202;16.274;2024-01-15T00:17:49;11.18;;;5.30;;
49123;SDS011;48506;48.202;16.274;2024-01-15T00:20:14;8.98;;;4.43;;
49123;SDS011;48506;48.202;16.274;2024-01-15T00:22:40;8.18;;;3.80;;
49123;SDS011;48506;48.202;16.274;2024-01-15T00:25:06;12.57;;;6.03;;
49123;SDS011;48506;48.202;16.274;2024-01-15T00:27:32;15.57;;;8.30;;
49123;SDS011;48506;48.202;16.274;2024-01-15T00:29:58;20.02;;;8.07;;
49123;SDS011;48506;48.202;16.274;2024-01-15T00:32:23;16.83;;;7.65;;
49123;SDS011;48506;48.202;16.274;2024-01-15T00:34:50;18.52;;;8.88;;
49123;SDS011;48506;48.202;16.274;2024-01-15T00:37:15;19.42;;;8.60;;
49123;SDS011;48506;48.202;16.274;2024-01-15T00:39:41;17.63;;;7.80;;
49123;SDS011;48506;48.202;16.274;2024-01-15T00:42:07;21.08;;;9.32;;
49123;SDS011;48506;48.202;16.274;2024-01-15T00:44:33;17.23;;;7.65;;
49123;SDS011;48506;48.202;16.274;2024-01-15T00:46:59;14.30;;;6.93;;
49123;SDS011;48506;48.202;16.274;2024-01-15T00:49:27;13.20;;;5.20;;
49123;SDS011;48506;48.202;16.274;2024-01-15T00:51:52;12.02;;;5.68;;
49123;SDS011;48506;48.202;16.274;2024-01-15T00:54:18;15.68;;;6.88;;
49123;SDS011;48506;48.202;16.274;2024-01-15T00:56:44;11.90;;;5.20;;
49123;SDS011;48506;48.202;16.274;2024-01-15T00:59:10;11.15;;;5.30;;
49123;SDS011;48506;48.202;16.274;2024-01-15T01:01:40;10.33;;;5.07;;
49123;SDS011;48506;48.202;16.274;2024-01-15T01:04:09;11.18;;;5.57;;
49123;SDS011;48506;48.202;16.274;2024-01-15T01:06:35;16.45;;;6.35;;
49123;SDS011;48506;48.202;16.274;2024-01-15T01:09:01;14.40;;;6.07;;
49123;SDS011;48506;48.202;16.274;2024-01-15T01:11:27;14.68;;;7.60;;
49123;SDS011;48506;48.202;16.274;2024-01-15T01:13:53;14.35;;;7.00;;
49123;SDS011;48506;48.202;16.274;2024-01-15T01:16:19;15.35;;;8.05;;
49123;SDS011;48506;48.202;16.274;2024-01-15T01:18:45;17.48;;;8.07;;
49123;SDS011;48506;48.202;16.274;2024-01-15T01:21:10;18.23;;;8.10;;
49123;SDS011;48506;48.202;16.274;2024-01-15T01:23:36;18.55;;;7.78;;
49123;SDS011;48506;48.202;16.274;2024-01-15T01:26:02;16.55;;;7.90;;
49123;SDS011;48506;48.202;16.274;2024-01-15T01:28:28;17.98;;;7.80;;
49123;SDS011;48506;48.202;16.274;2024-01-15T01:30:54;16.67;;;7.53;;
49123;SDS011;48506;48.202;16.274;2024-01-15T01:33:20;17.80;;;8.40;;
49123;SDS011;48506;48.202;16.274;2024-01-15T01:35:46;19.30;;;9.07;;
49123;SDS011;48506;48.202;16.274;2024-01-15T01:38:12;13.05;;;7.80;;
49123;SDS011;48506;48.202;16.274;2024-01-15T01:40:38;19.27;;;8.77;;
49123;SDS011;48506;48.202;16.274;2024-01-15T01:43:08;17.45;;;8.18;;
49123;SDS011;48506;48.202;16.274;2024-01-15T01:45:35;20.60;;;8.13;;
49123;SDS011;48506;48.202;16.274;2024-01-15T01:48:02;19.05;;;8.77;;
49123;SDS011;48506;48.202;16.274;2024-01-15T01:50:29;15.35;;;7.28;;
49123;SDS011;48506;48.202;16.274;2024-01-15T01:52:56;19.90;;;9.45;;
49123;SDS011;48506;48.202;16.274;2024-01-15T01:55:24;19.90;;;8.60;;
49123;SDS011;48506;48.202;16.274;2024-01-15T01:57:52;14.80;;;7.57;;
49123;SDS011;48506;48.202;16.274;2024-01-15T02:00:19;17.05;;;8.65;;
49123;SDS011;48506;48.202;16.274;2024-01-15T02:02:45;15.68;;;7.47;;
49123;SDS011;48506;48.202;16.274;2024-01-15T02:05:11;20.73;;;8.35;;
49123;SDS011;48506;48.202;16.274;2024-01-15T02:07:40;17.17;;;8.05;;
49123;SDS011;48506;48.202;16.274;2024-01-15T02:10:06;18.75;;;8.82;;
49123;SDS011;48506;48.202;16.274;2024-01-15T02:12:32;20.20;;;9.20;;
49123;SDS011;48506;48.202;16.274;2024-01-15T02:14:58;22.73;;;9.38;;
49123;SDS011;48506;48.202;16.274;2024-01-15T02:17:24;22.25;;;9.43;;
49123;SDS011;48506;48.202;16.274;2024-01-15T02:19:50;23.75;;;9.52;;
49123;SDS011;48506;48.202;16.274;2024-01-15T02:22:16;16.70;;;9.52;;
49123;SDS011;48506;48.202;16.274;2024-01-15T02:24:42;21.63;;;10.40;;
49123;SDS011;48506;48.202;16.274;2024-01-15T02:27:11;18.25;;;9.23;;
49123;SDS011;48506;48.202;16.274;2024-01-15T02:29:37;21.60;;;10.13;;
49123;SDS011;48506;48.202;16.274;2024-01-15T02:32:07;21.65;;;10.55;;
49123;SDS011;48506;48.202;16.274;2024-01-15T02:34:34;15.60;;;8.18;;
49123;SDS011;48506;48.202;16.274;2024-01-15T02:37:00;22.50;;;9.43;;
49123;SDS011;48506;48.202;16.274;2024-01-15T02:39:26;20.20;;;8.77;;
49123;SDS011;48506;48.202;16.274;2024-01-15T02:41:52;20.75;;;8.77;;
49123;SDS011;48506;48.202;16.274;2024-01-15T02:44:18;17.77;;;9.00;;
49123;SDS011;48506;48.202;16.274;2024-01-15T02:46:44;23.05;;;9.77;;
49123;SDS011;48506;48.202;16.274;2024-01-15T02:49:10;21.45;;;9.52;;
49123;SDS011;48506;48.202;16.274;2024-01-15T02:51:35;20.63;;;9.27;;
49123;SDS011;48506;48.202;16.274;2024-01-15T02:54:01;26.02;;;9.77;;
49123;SDS011;48506;48.202;16.274;2024-01-15T02:56:27;22.02;;;8.82;;
49123;SDS011;48506;48.202;16.274;2024-01-15T02:58:53;19.77;;;9.27;;
49123;SDS011;48506;48.202;16.274;2024-01-15T03:01:19;21.42;;;10.43;;
49123;SDS011;48506;48.202;16.274;2024-01-15T03:03:45;21.25;;;9.98;;
49123;SDS011;48506;48.202;16.274;2024-01-15T03:06:11;17.58;;;7.43;;
49123;SDS011;48506;48.202;16.274;2024-01-15T03:08:37;22.98;;;10.00;;
49123;SDS011;48506;48.202;16.274;2024-01-15T03:11:03;18.90;;;9.15;;
49123;SDS011;48506;48.202;16.274;2024-01-15T03:13:29;27.00;;;10.38;;
49123;SDS011;48506;48.202;16.274;2024-01-15T03:15:55;20.63;;;10.02;;
49123;SDS011;48506;48.202;16.274;2024-01-15T03:18:20;22.42;;;10.60;;
49123;SDS011;48506;48.202;16.274;2024-01-15T03:20:46;21.92;;;10.85;;
49123;SDS011;48506;48.202;16.274;2024-01-15T03:23:12;21.25;;;10.45;;
49123;SDS011;48506;48.202;16.274;2024-01-15T03:25:38;19.17;;;8.73;;
49123;SDS011;48506;48.202;16.274;2024-01-15T03:28:04;25.45;;;12.13;;
49123;SDS011;48506;48.202;16.274;2024-01-15T03:30:30;22.98;;;10.90;;
49123;SDS011;48506;48.202;16.274;2024-01-15T03:32:56;27.48;;;11.63;;
49123;SDS011;48506;48.202;16.274;2024-01-15T03:35:22;27.98;;;11.77;;
49123;SDS011;48506;48.202;16.274;2024-01-15T03:37:47;26.48;;;11.75;;
49123;SDS011;48506;48.202;16.274;2024-01-15T03:40:13;26.13;;;11.98;;
49123;SDS011;48506;48.202;16.274;2024-01-15T03:42:39;26.42;;;12.90;;
49123;SDS011;48506;48.202;16.274;2024-01-15T03:45:05;30.20;;;13.32;;
49123;SDS011;48506;48.202;16.274;2024-01-15T03:47:31;31.85;;;13.75;;
49123;SDS011;48506;48.202;16.274;2024-01-15T03:49:57;29.52;;;12.55;;
49123;SDS011;48506;48.202;16.274;2024-01-15T03:52:23;32.63;;;13.38;;
49123;SDS011;48506;48.202;16.274;2024-01-15T03:54:49;27.95;;;12.68;;
49123;SDS011;48506;48.202;16.274;2024-01-15T03:57:14;27.23;;;13.35;;
49123;SDS011;48506;48.202;16.274;2024-01-15T03:59:40;25.50;;;12.52;;
49123;SDS011;48506;48.202;16.274;2024-01-15T04:02:07;29.73;;;12.65;;
49123;SDS011;48506;48.202;16.274;2024-01-15T04:04:33;35.60;;;13.95;;
49123;SDS011;48506;48.202;16.274;2024-01-15T04:06:59;28.95;;;13.45;;
49123;SDS011;48506;48.202;16.274;2024-01-15T04:09:24;31.45;;;12.77;;
49123;SDS011;48506;48.202;16.274;2024-01-15T04:11:51;25.75;;;11.65;;
49123;SDS011;48506;48.202;16.274;2024-01-15T04:14:16;28.80;;;13.05;;
49123;SDS011;48506;48.202;16.274;2024-01-15T04:16:42;27.88;;;12.05;;
49123;SDS011;48506;48.202;16.274;2024-01-15T04:19:08;26.40;;;11.05;;
49123;SDS011;48506;48.202;16.274;2024-01-15T04:21:34;25.40;;;11.65;;
49123;SDS011;48506;48.202;16.274;2024-01-15T04:24:00;23.30;;;10.18;;
49123;SDS011;48506;48.202;16.274;2024-01-15T04:26:26;21.23;;;9.88;;
49123;SDS011;48506;48.202;16.274;2024-01-15T04:28:52;24.50;;;10.90;;
49123;SDS011;48506;48.202;16.274;2024-01-15T04:31:24;25.02;;;10.02;;
49123;SDS011;48506;48.202;16.274;2024-01-15T04:33:52;21.23;;;9.77;;
49123;SDS011;48506;48.202;16.274;2024-01-15T04:36:18;22.00;;;11.50;;
49123;SDS011;48506;48.202;16.274;2024-01-15T04:38:44;21.88;;;10.60;;
49123;SDS011;48506;48.202;16.274;2024-01-15T04:41:13;25.30;;;12.27;;
49123;SDS011;48506;48.202;16.274;2024-01-15T04:43:39;27.43;;;12.57;;
49123;SDS011;48506;48.202;16.274;2024-01-15T04:46:06;26.77;;;13.02;;
49123;SDS011;48506;48.202;16.274;2024-01-15T04:48:32;28.08;;;12.98;;
49123;SDS011;48506;48.202;16.274;2024-01-15T04:50:58;23.63;;;12.50;;
49123;SDS011;48506;48.202;16.274;2024-01-15T04:53:25;30.23;;;13.70;;
49123;SDS011;48506;48.202;16.274;2024-01-15T04:55:52;27.45;;;13.32;;
49123;SDS011;48506;48.202;16.274;2024-01-15T04:58:17;27.75;;;11.52;;
49123;SDS011;48506;48.202;16.274;2024-01-15T05:00:43;24.65;;;12.50;;
49123;SDS011;48506;48.202;16.274;2024-01-15T05:03:09;23.65;;;12.25;;
49123;SDS011;48506;48.202;16.274;2024-01-15T05:05:35;24.95;;;11.73;;
49123;SDS011;48506;48.202;16.274;2024-01-15T05:08:01;29.30;;;14.10;;
49123;SDS011;48506;48.202;16.274;2024-01-15T05:10:27;26.33;;;12.85;;
49123;SDS011;48506;48.202;16.274;2024-01-15T05:12:53;27.38;;;12.95;;
49123;SDS011;48506;48.202;16.274;2024-01-15T05:15:19;28.27;;;14.02;;
49123;SDS011;48506;48.202;16.274;2024-01-15T05:17:45;26.45;;;12.90;;
49123;SDS011;48506;48.202;16.274;2024-01-15T05:20:11;24.75;;;13.00;;
49123;SDS011;48506;48.202;16.274;2024-01-15T05:22:37;24.63;;;11.43;;
49123;SDS011;48506;48.202;16.274;2024-01-15T05:25:02;26.80;;;13.07;;
49123;SDS011;48506;48.202;16.274;2024-01-15T05:27:28;28.27;;;13.32;;
49123;SDS011;48506;48.202;16.274;2024-01-15T05:29:54;25.50;;;13.15;;
49123;SDS011;48506;48.202;16.274;2024-01-15T05:32:20;27.83;;;12.88;;
49123;SDS011;48506;48.202;16.274;2024-01-15T05:34:46;28.70;;;12.52;;
49123;SDS011;48506;48.202;16.274;2024-01-15T05:37:13;24.42;;;11.98;;
49123;SDS011;48506;48.202;16.274;2024-01-15T05:39:39;21.80;;;11.90;;
49123;SDS011;48506;48.202;16.274;2024-01-15T05:42:04;26.40;;;11.98;;
49123;SDS011;48506;48.202;16.274;2024-01-15T05:44:30;26.77;;;12.98;;
49123;SDS011;48506;48.202;16.274;2024-01-15T05:46:56;22.05;;;10.77;;
49123;SDS011;48506;48.202;16.274;2024-01-15T05:49:22;27.63;;;12.13;;
49123;SDS011;48506;48.202;16.274;2024-01-15T05:51:48;24.50;;;12.07;;
49123;SDS011;48506;48.202;16.274;2024-01-15T05:54:14;20.88;;;9.82;;
49123;SDS011;48506;48.202;16.274;2024-01-15T05:56:40;26.48;;;11.80;;
49123;SDS011;48506;48.202;16.274;2024-01-15T05:59:05;19.48;;;10.73;;
49123;SDS011;48506;48.202;16.274;2024-01-15T06:01:31;19.23;;;9.52;;
49123;SDS011;48506;48.202;16.274;2024-01-15T06:03:57;20.50;;;10.27;;
49123;SDS011;48506;48.202;16.274;2024-01-15T06:06:23;20.00;;;9.30;;
49123;SDS011;48506;48.202;16.274;2024-01-15T06:08:49;16.58;;;8.32;;
49123;SDS011;48506;48.202;16.274;2024-01-15T06:11:15;14.27;;;6.88;;
49123;SDS011;48506;48.202;16.274;2024-01-15T06:13:41;17.30;;;8.68;;
49123;SDS011;48506;48.202;16.274;2024-01-15T06:16:15;17.90;;;8.52;;
49123;SDS011;48506;48.202;16.274;2024-01-15T06:18:42;23.17;;;9.63;;
49123;SDS011;48506;48.202;16.274;2024-01-15T06:21:08;20.92;;;10.07;;
49123;SDS011;48506;48.202;16.274;2024-01-15T06:23:36;19.17;;;9.43;;
49123;SDS011;48506;48.202;16.274;2024-01-15T06:26:02;20.95;;;9.45;;
49123;SDS011;48506;48.202;16.274;2024-01-15T06:28:29;23.25;;;10.80;;
49123;SDS011;48506;48.202;16.274;2024-01-15T06:30:55;21.90;;;10.07;;
49123;SDS011;48506;48.202;16.274;2024-01-15T06:33:20;21.77;;;10.90;;
49123;SDS011;48506;48.202;16.274;2024-01-15T06:35:46;15.10;;;8.35;;
49123;SDS011;48506;48.202;16.274;2024-01-15T06:38:13;21.60;;;9.60;;
49123;SDS011;48506;48.202;16.274;2024-01-15T06:40:38;19.55;;;9.98;;
49123;SDS011;48506;48.202;16.274;2024-01-15T06:43:06;23.00;;;9.80;;
49123;SDS011;48506;48.202;16.274;2024-01-15T06:45:32;21.00;;;10.27;;
49123;SDS011;48506;48.202;16.274;2024-01-15T06:47:58;19.50;;;9.98;;
49123;SDS011;48506;48.202;16.274;2024-01-15T06:50:24;17.95;;;8.98;;
49123;SDS011;48506;48.202;16.274;2024-01-15T06:52:50;21.65;;;10.68;;
49123;SDS011;48506;48.202;16.274;2024-01-15T06:55:16;19.85;;;9.90;;
49123;SDS011;48506;48.202;16.274;2024-01-15T06:57:41;20.38;;;9.85;;
49123;SDS011;48506;48.202;16.274;2024-01-15T07:00:08;20.45;;;9.75;;
49123;SDS011;48506;48.202;16.274;2024-01-15T07:02:35;22.33;;;9.57;;
49123;SDS011;48506;48.202;16.274;2024-01-15T07:05:01;19.35;;;8.73;;
49123;SDS011;48506;48.202;16.274;2024-01-15T07:07:29;16.67;;;9.90;;
49123;SDS011;48506;48.202;16.274;2024-01-15T07:09:55;19.13;;;10.00;;
49123;SDS011;48506;48.202;16.274;2024-01-15T07:12:21;19.10;;;8.98;;
49123;SDS011;48506;48.202;16.274;2024-01-15T07:14:48;21.00;;;9.68;;
49123;SDS011;48506;48.202;16.274;2024-01-15T07:17:14;19.80;;;9.57;;
49123;SDS011;48506;48.202;16.274;2024-01-15T07:19:40;18.38;;;8.95;;
49123;SDS011;48506;48.202;16.274;2024-01-15T07:22:06;15.75;;;8.48;;
49123;SDS011;48506;48.202;16.274;2024-01-15T07:24:32;17.92;;;9.38;;
49123;SDS011;48506;48.202;16.274;2024-01-15T07:27:01;16.17;;;7.38;;
49123;SDS011;48506;48.202;16.274;2024-01-15T07:29:30;20.35;;;10.32;;
49123;SDS011;48506;48.202;16.274;2024-01-15T07:31:58;21.45;;;10.80;;
49123;SDS011;48506;48.202;16.274;2024-01-15T07:34:24;17.42;;;8.40;;
49123;SDS011;48506;48.202;16.274;2024-01-15T07:36:50;16.23;;;7.40;;
49123;SDS011;48506;48.202;16.274;2024-01-15T07:39:16;16.05;;;8.18;;
49123;SDS011;48506;48.202;16.274;2024-01-15T07:41:42;17.60;;;9.43;;
49123;SDS011;48506;48.202;16.274;2024-01-15T07:44:09;17.83;;;8.93;;
49123;SDS011;48506;48.202;16.274;2024-01-15T07:46:35;18.23;;;8.95;;
49123;SDS011;48506;48.202;16.274;2024-01-15T07:49:00;16.75;;;9.02;;
49123;SDS011;48506;48.202;16.274;2024-01-15T07:51:26;19.73;;;8.00;;
49123;SDS011;48506;48.202;16.274;2024-01-15T07:53:53;18.65;;;9.25;;
49123;SDS011;48506;48.202;16.274;2024-01-15T07:56:20;20.42;;;9.90;;
49123;SDS011;48506;48.202;16.274;2024-01-15T07:58:47;18.13;;;9.13;;
49123;SDS011;48506;48.202;16.274;2024-01-15T08:01:13;15.48;;;8.13;;
49123;SDS011;48506;48.202;16.274;2024-01-15T08:03:38;17.63;;;8.95;;
49123;SDS011;48506;48.202;16.274;2024-01-15T08:06:05;16.77;;;10.02;;
49123;SDS011;48506;48.202;16.274;2024-01-15T08:08:31;21.67;;;9.15;;
49123;SDS011;48506;48.202;16.274;2024-01-15T08:10:57;17.88;;;9.05;;
49123;SDS011;48506;48.202;16.274;2024-01-15T08:13:22;21.20;;;9.32;;
49123;SDS011;48506;48.202;16.274;2024-01-15T08:15:52;16.90;;;9.00;;
49123;SDS011;48506;48.202;16.274;2024-01-15T08:18:18;17.88;;;8.43;;
49123;SDS011;48506;48.202;16.274;2024-01-15T08:20:43;17.35;;;8.93;;
49123;SDS011;48506;48.202;16.274;2024-01-15T08:23:09;14.70;;;8.73;;
49123;SDS011;48506;48.202;16.274;2024-01-15T08:25:35;17.40;;;7.90;;
49123;SDS011;48506;48.202;16.274;2024-01-15T08:28:01;18.13;;;8.68;;
49123;SDS011;48506;48.202;16.274;2024-01-15T08:30:27;18.15;;;8.45;;
49123;SDS011;48506;48.202;16.274;2024-01-15T08:32:53;13.27;;;6.63;;
49123;SDS011;48506;48.202;16.274;2024-01-15T08:35:21;15.40;;;8.20;;
49123;SDS011;48506;48.202;16.274;2024-01-15T08:37:51;14.00;;;6.97;;
49123;SDS011;48506;48.202;16.274;2024-01-15T08:40:18;13.80;;;7.00;;
49123;SDS011;48506;48.202;16.274;2024-01-15T08:42:44;12.50;;;7.20;;
49123;SDS011;48506;48.202;16.274;2024-01-15T08:45:13;14.57;;;6.70;;
49123;SDS011;48506;48.202;16.274;2024-01-15T08:47:39;14.32;;;7.60;;
49123;SDS011;48506;48.202;16.274;2024-01-15T08:50:05;15.18;;;7.60;;
49123;SDS011;48506;48.202;16.274;2024-01-15T08:52:35;12.48;;;6.30;;
49123;SDS011;48506;48.202;16.274;2024-01-15T08:55:01;15.25;;;8.27;;
49123;SDS011;48506;48.202;16.274;2024-01-15T08:57:26;13.57;;;7.70;;
49123;SDS011;48506;48.202;16.274;2024-01-15T08:59:52;14.05;;;6.90;;
49123;SDS011;48506;48.202;16.274;2024-01-15T09:02:19;12.30;;;6.22;;
49123;SDS011;48506;48.202;16.274;2024-01-15T09:04:46;12.13;;;6.68;;
49123;SDS011;48506;48.202;16.274;2024-01-15T09:07:11;13.52;;;6.05;;
49123;SDS011;48506;48.202;16.274;2024-01-15T09:09:37;12.32;;;6.57;;
49123;SDS011;48506;48.202;16.274;2024-01-15T09:12:03;12.38;;;5.90;;
49123;SDS011;48506;48.202;16.274;2024-01-15T09:14:29;11.23;;;5.35;;
49123;SDS011;48506;48.202;16.274;2024-01-15T09:16:55;10.98;;;5.43;;
49123;SDS011;48506;48.202;16.274;2024-01-15T09:19:22;9.73;;;5.57;;
49123;SDS011;48506;48.202;16.274;2024-01-15T09:21:48;10.55;;;5.90;;
49123;SDS011;48506;48.202;16.274;2024-01-15T09:24:14;14.40;;;6.53;;
49123;SDS011;48506;48.202;16.274;2024-01-15T09:26:39;14.27;;;6.68;;
49123;SDS011;48506;48.202;16.274;2024-01-15T09:29:05;13.02;;;6.40;;
49123;SDS011;48506;48.202;16.274;2024-01-15T09:31:31;8.50;;;5.25;;
49123;SDS011;48506;48.202;16.274;2024-01-15T09:33:57;10.43;;;5.90;;
49123;SDS011;48506;48.202;16.274;2024-01-15T09:36:25;9.43;;;6.18;;
49123;SDS011;48506;48.202;16.274;2024-01-15T09:38:52;12.13;;;6.40;;
49123;SDS011;48506;48.202;16.274;2024-01-15T09:41:17;12.23;;;5.18;;
49123;SDS011;48506;48.202;16.274;2024-01-15T09:43:44;11.20;;;5.53;;
49123;SDS011;48506;48.202;16.274;2024-01-15T09:46:11;11.85;;;6.13;;
49123;SDS011;48506;48.202;16.274;2024-01-15T09:48:37;10.50;;;5.93;;
49123;SDS011;48506;48.202;16.274;2024-01-15T09:51:04;10.25;;;5.43;;
49123;SDS011;48506;48.202;16.274;2024-01-15T09:53:32;10.45;;;5.88;;
49123;SDS011;48506;48.202;16.274;2024-01-15T09:55:59;11.77;;;7.13;;
49123;SDS011;48506;48.202;16.274;2024-01-15T09:58:25;11.40;;;6.18;;
49123;SDS011;48506;48.202;16.274;2024-01-15T10:00:51;8.27;;;4.85;;
49123;SDS011;48506;48.202;16.274;2024-01-15T10:03:18;11.48;;;6.05;;
49123;SDS011;48506;48.202;16.274;2024-01-15T10:05:44;14.20;;;5.95;;
49123;SDS011;48506;48.202;16.274;2024-01-15T10:08:10;11.00;;;6.20;;
49123;SDS011;48506;48.202;16.274;2024-01-15T10:10:36;12.60;;;6.15;;
49123;SDS011;48506;48.202;16.274;2024-01-15T10:13:03;11.77;;;6.30;;
49123;SDS011;48506;48.202;16.274;2024-01-15T10:15:33;12.30;;;5.75;;
49123;SDS011;48506;48.202;16.274;2024-01-15T10:18:02;11.38;;;6.00;;
49123;SDS011;48506;48.202;16.274;2024-01-15T10:20:28;11.05;;;5.45;;
49123;SDS011;48506;48.202;16.274;2024-01-15T10:22:57;13.18;;;5.55;;
49123;SDS011;48506;48.202;16.274;2024-01-15T10:25:23;8.32;;;4.72;;
49123;SDS011;48506;48.202;16.274;2024-01-15T10:28:00;10.98;;;5.43;;
49123;SDS011;48506;48.202;16.274;2024-01-15T10:30:28;10.27;;;5.97;;
49123;SDS011;48506;48.202;16.274;2024-01-15T10:32:57;9.50;;;5.45;;
49123;SDS011;48506;48.202;16.274;2024-01-15T10:35:31;10.45;;;5.07;;
49123;SDS011;48506;48.202;16.274;2024-01-15T10:37:59;7.30;;;3.92;;
49123;SDS011;48506;48.202;16.274;2024-01-15T10:40:25;6.50;;;4.20;;
49123;SDS011;48506;48.202;16.274;2024-01-15T10:42:52;7.93;;;4.80;;
49123;SDS011;48506;48.202;16.274;2024-01-15T10:45:18;8.63;;;4.32;;
49123;SDS011;48506;48.202;16.274;2024-01-15T10:47:44;7.15;;;3.70;;
49123;SDS011;48506;48.202;16.274;2024-01-15T10:50:11;8.35;;;4.53;;
49123;SDS011;48506;48.202;16.274;2024-01-15T10:52:38;8.23;;;5.43;;
49123;SDS011;48506;48.202;16.274;2024-01-15T10:55:09;7.88;;;4.65;;
49123;SDS011;48506;48.202;16.274;2024-01-15T10:57:38;7.70;;;4.15;;
49123;SDS011;48506;48.202;16.274;2024-01-15T11:00:04;7.45;;;4.45;;
49123;SDS011;48506;48.202;16.274;2024-01-15T11:02:35;7.22;;;4.00;;
49123;SDS011;48506;48.202;16.274;2024-01-15T11:05:02;8.38;;;4.97;;
49123;SDS011;48506;48.202;16.274;2024-01-15T11:07:32;9.20;;;4.95;;
49123;SDS011;48506;48.202;16.274;2024-01-15T11:09:58;5.68;;;3.78;;
49123;SDS011;48506;48.202;16.274;2024-01-15T11:12:24;10.68;;;5.32;;
49123;SDS011;48506;48.202;16.274;2024-01-15T11:14:50;7.32;;;4.32;;
49123;SDS011;48506;48.202;16.274;2024-01-15T11:17:17;8.02;;;4.50;;
49123;SDS011;48506;48.202;16.274;2024-01-15T11:19:50;9.90;;;4.70;;
49123;SDS011;48506;48.202;16.274;2024-01-15T11:25:01;7.32;;;4.22;;
49123;SDS011;48506;48.202;16.274;2024-01-15T11:27:41;6.63;;;4.53;;
49123;SDS011;48506;48.202;16.274;2024-01-15T11:30:18;6.13;;;3.50;;
49123;SDS011;48506;48.202;16.274;2024-01-15T11:32:48;9.00;;;5.35;;
49123;SDS011;48506;48.202;16.274;2024-01-15T11:35:14;7.80;;;4.55;;
49123;SDS011;48506;48.202;16.274;2024-01-15T11:40:20;7.35;;;5.00;;
49123;SDS011;48506;48.202;16.274;2024-01-15T11:42:47;7.00;;;4.35;;
49123;SDS011;48506;48.202;16.274;2024-01-15T11:45:18;8.93;;;4.43;;
49123;SDS011;48506;48.202;16.274;2024-01-15T11:50:41;9.88;;;4.65;;
49123;SDS011;48506;48.202;16.274;2024-01-15T11:53:55;7.22;;;4.20;;
49123;SDS011;48506;48.202;16.274;2024-01-15T11:56:11;10.57;;;4.97;;
49123;SDS011;48506;48.202;16.274;2024-01-15T11:58:44;8.05;;;4.43;;
49123;SDS011;48506;48.202;16.274;2024-01-15T12:01:11;8.55;;;5.10;;
49123;SDS011;48506;48.202;16.274;2024-01-15T12:03:36;9.25;;;4.68;;
49123;SDS011;48506;48.202;16.274;2024-01-15T12:06:05;7.82;;;4.40;;
49123;SDS011;48506;48.202;16.274;2024-01-15T12:08:32;6.35;;;3.65;;
49123;SDS011;48506;48.202;16.274;2024-01-15T12:10:58;11.82;;;5.05;;
49123;SDS011;48506;48.202;16.274;2024-01-15T12:13:24;10.82;;;4.35;;
49123;SDS011;48506;48.202;16.274;2024-01-15T12:15:49;6.43;;;3.90;;
49123;SDS011;48506;48.202;16.274;2024-01-15T12:18:16;6.72;;;3.60;;
49123;SDS011;48506;48.202;16.274;2024-01-15T12:20:43;6.93;;;4.30;;
49123;SDS011;48506;48.202;16.274;2024-01-15T12:23:12;6.95;;;4.50;;
49123;SDS011;48506;48.202;16.274;2024-01-15T12:25:39;7.90;;;4.30;;
49123;SDS011;48506;48.202;16.274;2024-01-15T12:28:05;6.38;;;3.88;;
49123;SDS011;48506;48.202;16.274;2024-01-15T12:30:33;6.28;;;3.70;;
49123;SDS011;48506;48.202;16.274;2024-01-15T12:33:04;7.60;;;3.80;;
49123;SDS011;48506;48.202;16.274;2024-01-15T12:35:30;8.18;;;3.55;;
49123;SDS011;48506;48.202;16.274;2024-01-15T12:38:01;7.05;;;4.22;;
49123;SDS011;48506;48.202;16.274;2024-01-15T12:40:28;6.72;;;3.67;;
49123;SDS011;48506;48.202;16.274;2024-01-15T12:42:55;5.40;;;3.83;;
49123;SDS011;48506;48.202;16.274;2024-01-15T12:45:21;6.45;;;3.67;;
49123;SDS011;48506;48.202;16.274;2024-01-15T12:47:47;6.55;;;4.10;;
49123;SDS011;48506;48.202;16.274;2024-01-15T12:50:13;6.47;;;3.50;;
49123;SDS011;48506;48.202;16.274;2024-01-15T12:52:40;6.88;;;4.00;;
49123;SDS011;48506;48.202;16.274;2024-01-15T12:55:07;6.28;;;4.20;;
49123;SDS011;48506;48.202;16.274;2024-01-15T12:57:35;10.10;;;4.35;;
49123;SDS011;48506;48.202;16.274;2024-01-15T13:00:02;5.22;;;3.33;;
49123;SDS011;48506;48.202;16.274;2024-01-15T13:02:36;7.03;;;3.58;;
49123;SDS011;48506;48.202;16.274;2024-01-15T13:05:03;6.30;;;4.03;;
49123;SDS011;48506;48.202;16.274;2024-01-15T13:07:29;5.13;;;3.65;;
49123;SDS011;48506;48.202;16.274;2024-01-15T13:09:55;7.43;;;3.80;;
49123;SDS011;48506;48.202;16.274;2024-01-15T13:12:21;7.00;;;4.05;;
49123;SDS011;48506;48.202;16.274;2024-01-15T13:14:50;7.80;;;3.40;;
49123;SDS011;48506;48.202;16.274;2024-01-15T13:17:16;5.57;;;3.83;;
49123;SDS011;48506;48.202;16.274;2024-01-15T13:19:42;6.68;;;3.00;;
49123;SDS011;48506;48.202;16.274;2024-01-15T13:22:08;4.30;;;2.92;;
49123;SDS011;48506;48.202;16.274;2024-01-15T13:24:34;6.10;;;3.03;;
49123;SDS011;48506;48.202;16.274;2024-01-15T13:27:02;5.88;;;3.30;;
49123;SDS011;48506;48.202;16.274;2024-01-15T13:29:29;5.70;;;3.20;;
49123;SDS011;48506;48.202;16.274;2024-01-15T13:31:56;6.15;;;2.80;;
49123;SDS011;48506;48.202;16.274;2024-01-15T13:34:22;5.10;;;2.70;;
49123;SDS011;48506;48.202;16.274;2024-01-15T13:36:48;7.18;;;2.83;;
49123;SDS011;48506;48.202;16.274;2024-01-15T13:39:15;4.15;;;2.78;;
49123;SDS011;48506;48.202;16.274;2024-01-15T13:41:48;5.13;;;2.88;;
49123;SDS011;48506;48.202;16.274;2024-01-15T13:44:13;5.43;;;2.63;;
49123;SDS011;48506;48.202;16.274;2024-01-15T13:46:40;5.28;;;3.08;;
49123;SDS011;48506;48.202;16.274;2024-01-15T13:49:06;9.23;;;3.35;;
49123;SDS011;48506;48.202;16.274;2024-01-15T13:51:32;4.15;;;2.40;;
49123;SDS011;48506;48.202;16.274;2024-01-15T13:53:58;6.22;;;3.55;;
49123;SDS011;48506;48.202;16.274;2024-01-15T13:56:24;6.47;;;3.22;;
49123;SDS011;48506;48.202;16.274;2024-01-15T13:58:50;4.82;;;2.42;;
49123;SDS011;48506;48.202;16.274;2024-01-15T14:01:17;5.22;;;3.40;;
49123;SDS011;48506;48.202;16.274;2024-01-15T14:03:43;5.57;;;3.30;;
49123;SDS011;48506;48.202;16.274;2024-01-15T14:06:09;4.60;;;2.92;;
49123;SDS011;48506;48.202;16.274;2024-01-15T14:08:36;6.57;;;3.33;;
49123;SDS011;48506;48.202;16.274;2024-01-15T14:11:03;4.70;;;2.28;;
49123;SDS011;48506;48.202;16.274;2024-01-15T14:13:31;5.97;;;3.10;;
49123;SDS011;48506;48.202;16.274;2024-01-15T14:15:57;7.07;;;3.50;;
49123;SDS011;48506;48.202;16.274;2024-01-15T14:18:23;5.25;;;2.63;;
49123;SDS011;48506;48.202;16.274;2024-01-15T14:20:49;5.68;;;2.75;;
49123;SDS011;48506;48.202;16.274;2024-01-15T14:23:15;6.20;;;2.70;;
49123;SDS011;48506;48.202;16.274;2024-01-15T14:25:41;6.65;;;2.55;;